Mount Boyce, Australia
Current Conditions -  °F | °C
As of 9:30 PM on Saturday 25 Oct 2014 (Local Time) from YSRI Reporting Station
Broken Clouds Broken Clouds  
Wind Chill: 68°   Ceiling: 1400
Heat Index: 68°   Visibility: 6mi
Dew Point: 64°   Wind: 6mph
Humidity: 88%   Direction: 160°SSE
Pressure: 30"   Gusts: NA
Location:  33.62°S, 150.27°E
Report Text: YSRI 251030Z AUTO 16005KT 9999 // BKN014 BKN019 20/18 Q1016
Loading
Personal Weather Stations






























Interactive Weather Map
Tropical Storm Tracking
New forecast layout! Learn more

10-Day Weather Forecast

Advertisements
Track Severe Weather on mobile